createdAt,value
2022-12-29T00:00:18.307Z,0.00
2022-12-29T00:02:45.449Z,0.00
2022-12-29T00:05:12.579Z,0.00
2022-12-29T00:07:39.730Z,0.17
2022-12-29T00:10:07.281Z,0.00
2022-12-29T00:12:54.256Z,0.70
2022-12-29T00:15:39.530Z,0.00
2022-12-29T00:18:08.005Z,0.25
2022-12-29T00:20:57.556Z,0.00
2022-12-29T00:23:43.402Z,1.20
2022-12-29T00:26:33.652Z,1.08
2022-12-29T00:29:19.505Z,0.00
2022-12-29T00:32:04.920Z,0.13
2022-12-29T00:34:50.403Z,0.00
2022-12-29T00:37:18.118Z,0.50
2022-12-29T00:40:03.682Z,0.32
2022-12-29T00:42:50.606Z,0.00
2022-12-29T00:45:17.617Z,1.17
2022-12-29T00:47:45.160Z,0.00
2022-12-29T00:50:12.128Z,0.00
2022-12-29T00:52:39.061Z,0.00
2022-12-29T00:55:06.451Z,0.15
2022-12-29T00:57:34.067Z,0.00
2022-12-29T01:00:01.229Z,0.00
2022-12-29T01:02:30.375Z,0.00
2022-12-29T01:04:57.519Z,0.00
2022-12-29T01:07:24.392Z,0.00
2022-12-29T01:10:10.017Z,0.10
2022-12-29T01:12:43.066Z,0.00
2022-12-29T01:15:15.308Z,0.00
2022-12-29T01:17:42.734Z,0.00
2022-12-29T01:20:10.336Z,0.10
2022-12-29T01:22:37.471Z,0.00
2022-12-29T01:25:05.377Z,0.40
2022-12-29T01:27:32.476Z,0.15
2022-12-29T01:29:59.612Z,0.00
2022-12-29T01:32:26.578Z,0.00
2022-12-29T01:34:53.562Z,0.00
2022-12-29T01:37:20.562Z,0.00
2022-12-29T01:39:47.586Z,0.00
2022-12-29T01:42:19.534Z,0.15
2022-12-29T01:45:09.466Z,0.52
2022-12-29T01:47:42.704Z,0.45
2022-12-29T01:50:28.678Z,0.00
2022-12-29T01:53:08.930Z,0.13
2022-12-29T01:55:44.685Z,0.00
2022-12-29T01:58:15.977Z,0.00
2022-12-29T02:00:43.085Z,0.10
2022-12-29T02:03:11.543Z,0.00
2022-12-29T02:05:52.847Z,0.00
2022-12-29T02:08:23.719Z,0.00
2022-12-29T02:10:50.853Z,0.35
2022-12-29T02:13:21.414Z,0.10
2022-12-29T02:16:10.384Z,0.00
2022-12-29T02:18:57.916Z,0.45
2022-12-29T02:21:34.125Z,0.00
2022-12-29T02:24:39.283Z,0.00
2022-12-29T02:27:43.666Z,0.00
2022-12-29T02:30:18.510Z,0.00
2022-12-29T02:32:48.512Z,0.38
2022-12-29T02:35:27.085Z,0.00
2022-12-29T02:38:01.682Z,0.00
2022-12-29T02:40:43.773Z,0.32
2022-12-29T02:43:22.837Z,0.95
2022-12-29T02:46:05.695Z,0.00
2022-12-29T02:48:55.666Z,0.00
2022-12-29T02:51:37.147Z,0.00
2022-12-29T02:54:23.347Z,0.00
2022-12-29T02:56:50.773Z,0.00
2022-12-29T02:59:18.625Z,0.00
2022-12-29T03:02:18.929Z,0.55
2022-12-29T03:05:06.555Z,0.00
2022-12-29T03:08:08.253Z,0.00
2022-12-29T03:10:45.726Z,0.00
2022-12-29T03:13:55.625Z,0.00
2022-12-29T03:16:43.679Z,0.00
2022-12-29T03:22:14.627Z,0.00
2022-12-29T03:24:48.977Z,0.00
2022-12-29T03:27:24.388Z,0.98
2022-12-29T03:29:56.268Z,0.00
2022-12-29T03:32:26.968Z,0.00
2022-12-29T03:34:56.105Z,1.27
2022-12-29T03:37:27.327Z,0.70
2022-12-29T03:39:54.390Z,0.00
2022-12-29T03:42:25.128Z,0.00
2022-12-29T03:44:57.505Z,0.00
2022-12-29T03:47:25.847Z,0.00
2022-12-29T03:49:53.007Z,0.08
2022-12-29T03:52:20.493Z,0.10
2022-12-29T03:54:48.465Z,0.00
2022-12-29T03:57:15.586Z,0.00
2022-12-29T04:00:06.808Z,0.00
2022-12-29T04:02:42.556Z,0.17
2022-12-29T04:05:13.785Z,0.00
2022-12-29T04:07:41.486Z,0.10
2022-12-29T04:10:09.277Z,0.00
2022-12-29T04:12:36.873Z,0.43
2022-12-29T04:15:04.204Z,0.10
2022-12-29T04:17:31.786Z,0.00
2022-12-29T04:20:18.705Z,0.05
2022-12-29T04:22:45.903Z,0.00
2022-12-29T04:25:13.567Z,0.47
2022-12-29T04:27:43.082Z,0.00
2022-12-29T04:30:36.309Z,0.00
2022-12-29T04:33:24.225Z,0.65
2022-12-29T04:35:51.696Z,0.00
2022-12-29T04:38:18.675Z,0.00
2022-12-29T04:40:48.222Z,0.00
2022-12-29T04:43:17.809Z,0.17
2022-12-29T04:46:11.075Z,0.13
2022-12-29T04:48:46.371Z,0.00
2022-12-29T04:51:32.771Z,0.50
2022-12-29T04:54:00.570Z,0.10
2022-12-29T04:56:28.867Z,0.50
2022-12-29T04:58:55.935Z,0.45
2022-12-29T05:01:23.156Z,0.20
2022-12-29T05:03:52.501Z,0.43
2022-12-29T05:06:19.608Z,0.03
2022-12-29T05:08:46.703Z,0.20
2022-12-29T05:11:13.886Z,0.20
2022-12-29T05:13:41.094Z,0.00
2022-12-29T05:18:36.542Z,0.50
2022-12-29T05:21:04.376Z,0.05
2022-12-29T05:23:31.619Z,1.80
2022-12-29T05:26:06.177Z,0.52
2022-12-29T05:28:52.151Z,0.88
2022-12-29T05:31:20.384Z,0.47
2022-12-29T05:33:48.701Z,0.95
2022-12-29T05:36:15.977Z,0.00
2022-12-29T05:38:48.182Z,0.52
2022-12-29T05:41:15.747Z,1.00
2022-12-29T05:44:01.937Z,0.73
2022-12-29T05:46:29.534Z,1.08
2022-12-29T05:49:19.977Z,0.30
2022-12-29T05:52:06.499Z,0.52
2022-12-29T05:57:02.945Z,0.85
2022-12-29T06:01:58.561Z,0.00
2022-12-29T06:04:26.263Z,0.10
2022-12-29T06:06:53.507Z,1.33
2022-12-29T06:09:29.671Z,1.27
2022-12-29T06:11:57.314Z,0.15
2022-12-29T06:14:24.501Z,0.00
2022-12-29T06:16:52.070Z,0.03
2022-12-29T06:19:19.217Z,0.00
2022-12-29T06:21:46.819Z,0.10
2022-12-29T06:24:14.017Z,0.00
2022-12-29T06:26:41.498Z,0.00
2022-12-29T06:29:09.582Z,0.00
2022-12-29T06:31:36.929Z,0.85
2022-12-29T06:36:37.335Z,0.00
2022-12-29T06:41:33.018Z,0.17
2022-12-29T06:46:53.897Z,0.10
2022-12-29T06:49:21.177Z,0.10
2022-12-29T06:51:48.389Z,0.10
2022-12-29T06:54:15.821Z,0.43
2022-12-29T06:59:11.552Z,0.00
2022-12-29T07:01:38.920Z,0.10
2022-12-29T07:04:06.379Z,0.00
2022-12-29T07:06:33.539Z,0.00
2022-12-29T07:09:00.978Z,0.00
2022-12-29T07:11:28.140Z,0.00
2022-12-29T07:13:55.417Z,0.00
2022-12-29T07:16:22.712Z,0.00
2022-12-29T07:18:50.058Z,0.00
2022-12-29T07:21:17.817Z,1.90
2022-12-29T07:23:45.221Z,0.00
2022-12-29T07:26:14.252Z,0.00
2022-12-29T07:28:43.025Z,0.00
2022-12-29T07:31:21.145Z,0.25
2022-12-29T07:33:49.115Z,0.10
2022-12-29T07:36:17.023Z,0.10
2022-12-29T07:38:44.574Z,0.63
2022-12-29T07:41:11.659Z,0.30
2022-12-29T07:43:39.137Z,0.63
2022-12-29T07:46:55.518Z,1.45
2022-12-29T07:49:14.024Z,0.00
2022-12-29T07:51:41.224Z,0.23
2022-12-29T07:54:08.536Z,1.07
2022-12-29T07:56:35.617Z,0.10
2022-12-29T07:59:02.856Z,0.17
2022-12-29T08:01:30.179Z,0.68
2022-12-29T08:03:58.001Z,0.00
2022-12-29T08:06:25.346Z,0.10
2022-12-29T08:08:52.698Z,0.00
2022-12-29T08:11:19.935Z,0.00
2022-12-29T08:13:47.095Z,0.00
2022-12-29T08:16:14.283Z,0.10
2022-12-29T08:18:41.695Z,0.43
2022-12-29T08:21:08.936Z,0.70
2022-12-29T08:23:36.105Z,0.30
2022-12-29T08:26:06.075Z,0.75
2022-12-29T08:28:34.310Z,0.17
2022-12-29T08:31:02.885Z,0.10
2022-12-29T08:33:30.863Z,0.30
2022-12-29T08:36:05.868Z,0.52
2022-12-29T08:38:33.818Z,3.50
2022-12-29T08:41:02.367Z,1.33
2022-12-29T08:43:29.977Z,1.10
2022-12-29T08:45:59.368Z,4.63
2022-12-29T08:48:28.174Z,4.65
2022-12-29T08:50:55.656Z,0.55
2022-12-29T08:53:22.900Z,0.23
2022-12-29T08:56:04.625Z,0.63
2022-12-29T08:58:41.976Z,2.65
2022-12-29T09:01:11.098Z,0.57
2022-12-29T09:04:13.075Z,0.80
2022-12-29T09:06:26.388Z,0.60
2022-12-29T09:08:55.935Z,0.00
2022-12-29T09:11:26.025Z,0.20
2022-12-29T09:13:54.097Z,0.00
2022-12-29T09:16:23.391Z,0.00
2022-12-29T09:18:51.859Z,0.55
2022-12-29T09:21:19.295Z,0.00
2022-12-29T09:23:46.664Z,0.00
2022-12-29T09:26:14.020Z,0.40
2022-12-29T09:28:41.544Z,0.10
2022-12-29T09:31:09.024Z,0.13
2022-12-29T09:33:36.175Z,1.20
2022-12-29T09:36:03.862Z,0.32
2022-12-29T09:38:31.901Z,0.40
2022-12-29T09:41:08.223Z,0.00
2022-12-29T09:43:44.217Z,0.38
2022-12-29T09:46:50.137Z,0.50
2022-12-29T09:49:47.378Z,0.30
2022-12-29T09:52:31.096Z,0.27
2022-12-29T09:55:15.899Z,0.00
2022-12-29T09:58:19.862Z,0.00
2022-12-29T10:00:55.356Z,0.00
2022-12-29T10:03:25.573Z,0.00
2022-12-29T10:06:16.939Z,0.00
2022-12-29T10:09:08.864Z,0.00
2022-12-29T10:11:47.623Z,1.02
2022-12-29T10:14:30.817Z,0.15
2022-12-29T10:17:49.936Z,0.20
2022-12-29T10:20:30.296Z,0.38
2022-12-29T10:23:30.936Z,0.52
2022-12-29T10:25:59.819Z,0.52
2022-12-29T10:28:41.871Z,0.00
2022-12-29T10:31:23.039Z,0.00
2022-12-29T10:33:57.668Z,0.10
2022-12-29T10:36:42.176Z,0.00
2022-12-29T10:39:27.975Z,0.10
2022-12-29T10:42:10.816Z,0.08
2022-12-29T10:44:38.500Z,0.25
2022-12-29T10:47:20.351Z,0.00
2022-12-29T10:49:49.425Z,1.25
2022-12-29T10:52:19.020Z,0.08
2022-12-29T10:55:00.465Z,0.73
2022-12-29T10:57:33.737Z,0.00
2022-12-29T11:00:01.187Z,0.43
2022-12-29T11:02:40.654Z,0.00
2022-12-29T11:05:20.976Z,0.00
2022-12-29T11:07:50.819Z,0.45
2022-12-29T11:10:42.177Z,0.03
2022-12-29T11:13:16.626Z,0.00
2022-12-29T11:15:51.545Z,0.57
2022-12-29T11:18:29.056Z,0.45
2022-12-29T11:21:28.377Z,0.03
2022-12-29T11:24:01.616Z,0.82
2022-12-29T11:26:34.161Z,0.13
2022-12-29T11:29:28.460Z,0.00
2022-12-29T11:31:58.870Z,0.38
2022-12-29T11:34:36.714Z,0.05
2022-12-29T11:37:13.496Z,0.52
2022-12-29T11:39:44.217Z,0.40
2022-12-29T11:42:21.071Z,0.25
2022-12-29T11:44:50.821Z,0.75
2022-12-29T11:47:29.782Z,0.10
2022-12-29T11:50:04.229Z,1.73
2022-12-29T11:52:36.458Z,0.00
2022-12-29T11:55:06.859Z,1.08
2022-12-29T11:57:36.583Z,0.00
2022-12-29T12:00:17.828Z,0.00
2022-12-29T12:13:34.345Z,0.00
2022-12-29T12:16:20.130Z,0.17
2022-12-29T12:19:05.657Z,0.20
2022-12-29T12:21:45.980Z,0.50
2022-12-29T12:24:46.984Z,0.20
2022-12-29T12:27:25.776Z,0.40
2022-12-29T12:30:15.536Z,0.30
2022-12-29T12:33:12.696Z,0.08
2022-12-29T12:36:01.347Z,1.25
2022-12-29T12:38:42.660Z,0.10
2022-12-29T12:41:18.112Z,0.40
2022-12-29T12:44:10.699Z,0.85
2022-12-29T12:46:59.644Z,0.30
2022-12-29T12:49:35.656Z,0.50
2022-12-29T12:52:10.336Z,0.30
2022-12-29T12:54:58.536Z,0.47
2022-12-29T12:57:53.298Z,0.20
2022-12-29T13:00:24.471Z,0.20
2022-12-29T13:03:10.482Z,2.47
2022-12-29T13:06:06.660Z,0.10
2022-12-29T13:08:39.897Z,0.35
2022-12-29T13:11:16.018Z,0.17
2022-12-29T13:14:24.920Z,0.57
2022-12-29T13:17:00.815Z,0.80
2022-12-29T13:19:40.416Z,0.28
2022-12-29T13:22:22.824Z,0.17
2022-12-29T13:24:58.826Z,0.40
2022-12-29T13:27:50.936Z,0.57
2022-12-29T13:30:24.214Z,0.25
2022-12-29T13:33:21.169Z,0.40
2022-12-29T13:35:58.021Z,0.40
2022-12-29T13:38:27.901Z,0.10
2022-12-29T13:41:00.468Z,0.20
2022-12-29T13:43:31.310Z,0.25
2022-12-29T13:46:09.686Z,0.75
2022-12-29T13:49:16.343Z,0.10
2022-12-29T13:51:57.498Z,0.93
2022-12-29T13:54:36.018Z,0.35
2022-12-29T13:57:16.301Z,1.13
2022-12-29T14:00:00.455Z,0.00
2022-12-29T14:02:27.668Z,0.75
2022-12-29T14:05:04.576Z,0.00
2022-12-29T14:07:38.898Z,0.00
2022-12-29T14:10:06.944Z,0.20
2022-12-29T14:12:42.994Z,0.25
2022-12-29T14:15:13.041Z,0.00
2022-12-29T14:18:03.113Z,0.00
2022-12-29T14:20:30.866Z,0.10
2022-12-29T14:23:30.945Z,0.63
2022-12-29T14:26:12.866Z,0.25
2022-12-29T14:28:53.417Z,0.10
2022-12-29T14:31:20.769Z,0.65
2022-12-29T14:34:12.479Z,0.03
2022-12-29T14:36:42.021Z,0.10
2022-12-29T14:39:33.178Z,0.65
2022-12-29T14:42:08.547Z,0.10
2022-12-29T14:44:53.703Z,0.65
2022-12-29T14:47:32.977Z,0.57
2022-12-29T14:50:25.577Z,0.10
2022-12-29T14:53:03.798Z,0.85
2022-12-29T14:55:51.179Z,1.52
2022-12-29T14:58:33.534Z,0.63
2022-12-29T15:01:01.848Z,0.60
2022-12-29T15:06:18.099Z,1.13
2022-12-29T15:08:53.939Z,1.38
2022-12-29T15:11:22.636Z,0.38
2022-12-29T15:13:50.943Z,1.10
2022-12-29T15:16:38.156Z,0.70
2022-12-29T15:19:06.500Z,0.27
2022-12-29T15:21:36.668Z,0.10
2022-12-29T15:24:05.233Z,0.00
2022-12-29T15:26:45.621Z,0.00
2022-12-29T15:29:51.778Z,0.05
2022-12-29T15:32:28.937Z,0.32
2022-12-29T15:35:01.338Z,0.57
2022-12-29T15:37:35.016Z,0.15
2022-12-29T15:40:02.975Z,1.35
2022-12-29T15:42:48.739Z,2.00
2022-12-29T15:45:16.822Z,0.77
2022-12-29T15:47:47.912Z,0.52
2022-12-29T15:50:29.900Z,0.65
2022-12-29T15:52:58.737Z,0.20
2022-12-29T15:55:26.018Z,0.00
2022-12-29T15:57:58.818Z,0.00
2022-12-29T16:00:32.442Z,0.52
2022-12-29T16:03:02.542Z,1.98
2022-12-29T16:05:35.380Z,0.28
2022-12-29T16:08:03.712Z,0.32
2022-12-29T16:13:26.709Z,1.02
2022-12-29T16:16:00.421Z,0.47
2022-12-29T16:18:36.661Z,1.27
2022-12-29T16:21:06.579Z,0.20
2022-12-29T16:23:37.343Z,0.38
2022-12-29T16:26:09.137Z,0.38
2022-12-29T16:28:45.064Z,0.52
2022-12-29T16:31:49.099Z,0.20
2022-12-29T16:34:27.185Z,0.20
2022-12-29T16:37:02.619Z,0.10
2022-12-29T16:39:42.893Z,0.32
2022-12-29T16:42:51.700Z,0.00
2022-12-29T16:45:24.975Z,1.13
2022-12-29T16:48:07.153Z,0.32
2022-12-29T16:50:40.179Z,0.00
2022-12-29T16:53:19.827Z,0.00
2022-12-29T16:55:51.351Z,1.30
2022-12-29T16:58:29.098Z,0.63
2022-12-29T17:00:57.669Z,1.65
2022-12-29T17:03:34.901Z,2.03
2022-12-29T17:06:02.297Z,1.33
2022-12-29T17:08:29.498Z,1.63
2022-12-29T17:11:16.629Z,0.05
2022-12-29T17:13:43.819Z,1.58
2022-12-29T17:16:12.969Z,0.28
2022-12-29T17:18:40.340Z,0.08
2022-12-29T17:21:07.659Z,1.55
2022-12-29T17:23:35.530Z,0.13
2022-12-29T17:26:03.106Z,0.10
2022-12-29T17:28:33.101Z,0.20
2022-12-29T17:31:04.387Z,0.15
2022-12-29T17:33:37.139Z,0.95
2022-12-29T17:36:04.663Z,2.33
2022-12-29T17:38:35.634Z,0.57
2022-12-29T17:41:02.908Z,0.45
2022-12-29T17:43:36.487Z,0.80
2022-12-29T17:46:07.780Z,0.52
2022-12-29T17:48:35.876Z,0.22
2022-12-29T17:51:03.295Z,0.08
2022-12-29T17:53:31.060Z,0.00
2022-12-29T17:55:58.544Z,0.10
2022-12-29T17:58:31.947Z,0.13
2022-12-29T18:01:01.415Z,0.00
2022-12-29T18:03:32.461Z,0.00
2022-12-29T18:06:00.153Z,0.38
2022-12-29T18:08:28.939Z,0.00
2022-12-29T18:10:56.349Z,1.00
2022-12-29T18:13:30.297Z,0.00
2022-12-29T18:16:03.291Z,0.08
2022-12-29T18:18:30.577Z,1.67
2022-12-29T18:21:00.459Z,0.70
2022-12-29T18:23:35.371Z,0.93
2022-12-29T18:26:28.353Z,0.28
2022-12-29T18:28:57.232Z,0.00
2022-12-29T18:31:30.819Z,0.35
2022-12-29T18:34:00.062Z,0.00
2022-12-29T18:36:28.176Z,0.05
2022-12-29T18:38:55.938Z,0.00
2022-12-29T18:41:25.743Z,0.47
2022-12-29T18:43:53.226Z,1.17
2022-12-29T18:46:23.133Z,0.00
2022-12-29T18:48:52.134Z,0.10
2022-12-29T18:51:22.419Z,0.10
2022-12-29T18:53:50.043Z,0.20
2022-12-29T18:56:17.220Z,0.13
2022-12-29T18:58:44.507Z,0.30
2022-12-29T19:01:38.172Z,0.08
2022-12-29T19:04:05.538Z,0.00
2022-12-29T19:06:32.655Z,0.73
2022-12-29T19:08:59.937Z,0.65
2022-12-29T19:11:27.178Z,0.30
2022-12-29T19:13:54.420Z,0.03
2022-12-29T19:16:25.278Z,3.38
2022-12-29T19:19:08.343Z,13.02
2022-12-29T19:21:37.983Z,11.18
2022-12-29T19:26:36.900Z,10.30
2022-12-29T19:29:06.179Z,7.32
2022-12-29T19:31:33.804Z,9.32
2022-12-29T19:34:03.306Z,3.20
2022-12-29T19:36:30.657Z,3.03
2022-12-29T19:38:58.107Z,0.00
2022-12-29T19:41:25.386Z,0.50
2022-12-29T19:43:52.539Z,0.35
2022-12-29T19:46:20.679Z,0.00
2022-12-29T19:48:48.025Z,0.45
2022-12-29T19:51:17.534Z,0.00
2022-12-29T19:53:46.151Z,0.00
2022-12-29T19:56:14.676Z,0.00
2022-12-29T19:58:46.954Z,1.10
2022-12-29T20:01:23.109Z,1.17
2022-12-29T20:03:51.306Z,0.00
2022-12-29T20:06:19.444Z,0.00
2022-12-29T20:11:17.526Z,0.10
2022-12-29T20:13:45.832Z,0.00
2022-12-29T20:18:49.588Z,0.00
2022-12-29T20:21:25.068Z,0.00
2022-12-29T20:23:53.673Z,0.10
2022-12-29T20:26:27.126Z,0.00
2022-12-29T20:28:58.433Z,0.00
2022-12-29T20:31:29.875Z,0.00
2022-12-29T20:33:57.299Z,0.00
2022-12-29T20:36:28.798Z,0.00
2022-12-29T20:38:58.536Z,0.00
2022-12-29T20:41:26.419Z,0.22
2022-12-29T20:43:54.578Z,1.38
2022-12-29T20:48:55.822Z,0.30
2022-12-29T20:51:23.059Z,0.25
2022-12-29T20:53:50.418Z,0.00
2022-12-29T20:56:22.390Z,0.00
2022-12-29T20:59:25.819Z,0.00
2022-12-29T21:04:05.936Z,0.00
2022-12-29T21:09:01.223Z,0.00
2022-12-29T21:11:29.058Z,0.00
2022-12-29T21:13:59.353Z,0.00
2022-12-29T21:16:28.924Z,0.00
2022-12-29T21:18:56.227Z,0.00
2022-12-29T21:21:25.713Z,0.50
2022-12-29T21:23:53.575Z,0.00
2022-12-29T21:26:23.094Z,0.73
2022-12-29T21:28:51.340Z,0.08
2022-12-29T21:34:15.666Z,0.43
2022-12-29T21:36:42.818Z,0.00
2022-12-29T21:39:10.144Z,0.00
2022-12-29T21:41:37.218Z,0.00
2022-12-29T21:44:23.499Z,0.00
2022-12-29T21:46:50.753Z,0.00
2022-12-29T21:49:17.938Z,0.00
2022-12-29T21:51:51.202Z,1.10
2022-12-29T21:54:42.664Z,0.00
2022-12-29T21:57:10.585Z,0.00
2022-12-29T21:59:56.750Z,0.00
2022-12-29T22:02:46.590Z,0.00
2022-12-29T22:05:34.740Z,0.13
2022-12-29T22:11:07.611Z,0.00
2022-12-29T22:13:36.852Z,0.65
2022-12-29T22:16:09.424Z,0.20
2022-12-29T22:18:37.258Z,1.10
2022-12-29T22:21:10.246Z,0.30
2022-12-29T22:23:38.510Z,0.35
2022-12-29T22:26:07.697Z,0.15
2022-12-29T22:28:40.678Z,0.77
2022-12-29T22:31:21.972Z,1.38
2022-12-29T22:33:49.219Z,0.90
2022-12-29T22:36:16.459Z,0.98
2022-12-29T22:38:43.618Z,0.65
2022-12-29T22:41:10.781Z,0.10
2022-12-29T22:43:38.063Z,1.33
2022-12-29T22:46:07.960Z,0.25
2022-12-29T22:48:36.257Z,0.00
2022-12-29T22:53:31.082Z,0.00
2022-12-29T22:56:02.857Z,0.10
2022-12-29T22:58:30.053Z,0.00
2022-12-29T23:00:57.215Z,0.00
2022-12-29T23:03:24.761Z,0.00
2022-12-29T23:06:02.946Z,0.00
2022-12-29T23:11:00.626Z,0.00
2022-12-29T23:13:28.278Z,1.02
2022-12-29T23:15:55.918Z,0.00
2022-12-29T23:18:23.425Z,0.00
2022-12-29T23:20:50.939Z,0.00
2022-12-29T23:23:46.463Z,0.00
2022-12-29T23:26:16.473Z,0.00
2022-12-29T23:28:43.702Z,1.10
2022-12-29T23:31:11.216Z,0.00
2022-12-29T23:33:38.631Z,0.10
2022-12-29T23:36:06.302Z,0.00
2022-12-29T23:38:33.897Z,0.00
2022-12-29T23:41:01.293Z,0.28
2022-12-29T23:43:28.502Z,0.00
2022-12-29T23:45:56.057Z,0.00
2022-12-29T23:48:23.383Z,0.43
2022-12-29T23:50:51.299Z,0.53
2022-12-29T23:53:18.388Z,0.00
2022-12-29T23:55:52.421Z,0.85
2022-12-29T23:58:19.576Z,0.05
